Time;durP1;ratioP1;P1;durP2;ratioP2;P2;SDS_P1;SDS_P2;PMS_P1;PMS_P2;Temp;Humidity;BMP_temperature;BMP_pressure;BME280_temperature;BME280_humidity;BME280_pressure;Samples;Min_cycle;Max_cycle;Signal;HPM_P1;HPM_P2
2022/05/21 00:02:23;;;;;;;24.00;13.32;;;;;;;;;;5062672;28;20053;-74
2022/05/21 00:04:50;;;;;;;23.38;14.32;;;;;;;;;;5049132;28;20053;-74
2022/05/21 00:07:16;;;;;;;27.20;14.43;;;;;;;;;;5057655;28;20059;-74
2022/05/21 00:09:42;;;;;;;26.73;14.15;;;;;;;;;;5061926;28;20087;-73
2022/05/21 00:12:09;;;;;;;24.45;14.20;;;;;;;;;;5062669;28;21027;-74
2022/05/21 00:14:36;;;;;;;25.95;14.90;;;;;;;;;;5062245;28;20052;-74
2022/05/21 00:17:02;;;;;;;25.23;15.50;;;;;;;;;;5061180;28;20488;-74
2022/05/21 00:19:29;;;;;;;22.88;14.68;;;;;;;;;;5061831;28;20060;-74
2022/05/21 00:21:55;;;;;;;25.65;13.23;;;;;;;;;;5048498;28;20579;-74
2022/05/21 00:24:22;;;;;;;24.92;14.30;;;;;;;;;;5041459;28;20057;-74
2022/05/21 00:26:48;;;;;;;28.15;15.43;;;;;;;;;;5042002;28;20058;-74
2022/05/21 00:29:14;;;;;;;25.17;13.80;;;;;;;;;;5061606;28;20098;-74
2022/05/21 00:31:41;;;;;;;25.05;14.38;;;;;;;;;;5059352;28;20564;-74
2022/05/21 00:34:07;;;;;;;27.05;14.07;;;;;;;;;;5063183;28;20099;-74
2022/05/21 00:36:33;;;;;;;26.02;14.50;;;;;;;;;;5064940;28;20055;-74
2022/05/21 00:39:00;;;;;;;24.30;13.65;;;;;;;;;;5049654;28;20144;-74
2022/05/21 00:41:26;;;;;;;23.42;14.00;;;;;;;;;;5061337;28;20131;-74
2022/05/21 00:43:57;;;;;;;23.77;13.27;;;;;;;;;;5057130;28;20054;-74
2022/05/21 00:46:25;;;;;;;25.75;14.98;;;;;;;;;;5064695;28;20057;-74
2022/05/21 00:49:10;;;;;;;23.88;13.93;;;;;;;;;;5064313;28;20140;-74
2022/05/21 00:51:40;;;;;;;23.50;12.75;;;;;;;;;;5064462;28;20060;-74
2022/05/21 00:54:07;;;;;;;24.50;13.10;;;;;;;;;;5064167;28;20052;-74
2022/05/21 00:56:34;;;;;;;22.05;11.93;;;;;;;;;;5045415;28;20049;-75
2022/05/21 01:01:49;;;;;;;23.00;12.52;;;;;;;;;;5064232;28;20053;-75
2022/05/21 01:04:15;;;;;;;21.23;12.63;;;;;;;;;;5065587;28;20122;-75
2022/05/21 01:06:41;;;;;;;22.30;12.23;;;;;;;;;;5064311;28;20609;-76
2022/05/21 01:09:08;;;;;;;24.48;12.20;;;;;;;;;;5064458;28;20072;-75
2022/05/21 01:11:35;;;;;;;20.95;11.82;;;;;;;;;;5060040;28;20083;-75
2022/05/21 01:14:03;;;;;;;22.63;12.43;;;;;;;;;;5066356;28;20053;-76
2022/05/21 01:16:29;;;;;;;23.05;11.43;;;;;;;;;;5065830;28;20095;-76
2022/05/21 01:18:56;;;;;;;19.65;11.20;;;;;;;;;;5063901;28;20053;-75
2022/05/21 01:21:22;;;;;;;23.98;11.90;;;;;;;;;;5072538;28;20052;-75
2022/05/21 01:23:49;;;;;;;18.20;11.00;;;;;;;;;;5062729;28;20957;-74
2022/05/21 01:26:21;;;;;;;18.05;10.68;;;;;;;;;;5064760;28;20049;-75
2022/05/21 01:28:48;;;;;;;22.60;10.93;;;;;;;;;;5059213;28;20053;-73
2022/05/21 01:31:14;;;;;;;20.00;10.90;;;;;;;;;;5060479;28;20076;-75
2022/05/21 01:33:42;;;;;;;20.40;10.13;;;;;;;;;;5062597;28;20064;-76
2022/05/21 01:36:09;;;;;;;24.15;10.77;;;;;;;;;;5065090;28;20059;-75
2022/05/21 01:38:37;;;;;;;20.08;10.40;;;;;;;;;;5063121;28;20107;-75
2022/05/21 01:41:03;;;;;;;17.77;10.57;;;;;;;;;;5062237;28;20444;-75
2022/05/21 01:46:16;;;;;;;21.52;11.13;;;;;;;;;;5054217;28;20054;-74
2022/05/21 01:48:43;;;;;;;20.00;11.00;;;;;;;;;;5056872;28;20052;-74
2022/05/21 01:51:09;;;;;;;22.33;11.00;;;;;;;;;;5060982;28;21337;-75
2022/05/21 01:53:36;;;;;;;25.08;11.57;;;;;;;;;;5063033;28;20059;-76
2022/05/21 01:56:03;;;;;;;30.23;11.15;;;;;;;;;;5063990;28;20536;-74
2022/05/21 01:58:29;;;;;;;23.70;10.88;;;;;;;;;;5064389;28;20055;-75
2022/05/21 02:00:56;;;;;;;22.02;11.00;;;;;;;;;;5063206;28;20057;-75
2022/05/21 02:03:23;;;;;;;21.77;11.30;;;;;;;;;;5062610;28;20056;-74
2022/05/21 02:05:50;;;;;;;27.50;11.88;;;;;;;;;;5064052;28;20161;-75
2022/05/21 02:08:17;;;;;;;19.55;10.52;;;;;;;;;;5062607;28;20060;-76
2022/05/21 02:10:44;;;;;;;22.45;11.15;;;;;;;;;;5061111;28;20056;-75
2022/05/21 02:13:16;;;;;;;19.17;10.60;;;;;;;;;;5062152;28;20532;-75
2022/05/21 02:15:43;;;;;;;21.33;10.57;;;;;;;;;;5063383;28;20049;-73
2022/05/21 02:18:09;;;;;;;18.52;10.05;;;;;;;;;;5061912;28;20612;-75
2022/05/21 02:20:36;;;;;;;19.95;10.13;;;;;;;;;;5059608;28;20400;-75
2022/05/21 02:23:02;;;;;;;22.05;10.55;;;;;;;;;;5062022;28;20100;-73
2022/05/21 02:25:28;;;;;;;20.42;10.13;;;;;;;;;;5063402;28;20059;-74
2022/05/21 02:27:55;;;;;;;23.23;10.40;;;;;;;;;;5063712;28;20057;-75
2022/05/21 02:30:21;;;;;;;23.23;10.80;;;;;;;;;;5062253;28;20049;-75
2022/05/21 02:32:48;;;;;;;24.38;10.43;;;;;;;;;;5063722;28;20481;-75
2022/05/21 02:35:15;;;;;;;22.73;10.05;;;;;;;;;;5061976;28;20056;-75
2022/05/21 02:40:26;;;;;;;20.92;9.93;;;;;;;;;;5063186;28;20528;-73
2022/05/21 02:42:54;;;;;;;22.92;9.55;;;;;;;;;;5063591;28;20053;-75
2022/05/21 02:45:22;;;;;;;23.38;10.13;;;;;;;;;;5059708;28;20049;-75
2022/05/21 02:47:48;;;;;;;24.77;9.90;;;;;;;;;;5047905;28;20060;-75
2022/05/21 02:50:16;;;;;;;22.67;10.15;;;;;;;;;;5061906;28;20152;-75
2022/05/21 02:52:42;;;;;;;24.05;10.07;;;;;;;;;;5077627;28;20926;-74
2022/05/21 02:55:09;;;;;;;24.00;9.93;;;;;;;;;;5062039;28;20139;-75
2022/05/21 02:57:35;;;;;;;29.05;10.60;;;;;;;;;;5062157;28;20049;-75
2022/05/21 03:00:07;;;;;;;23.73;10.07;;;;;;;;;;5063241;28;20497;-74
2022/05/21 03:02:34;;;;;;;22.58;10.65;;;;;;;;;;5043511;28;20064;-75
2022/05/21 03:05:03;;;;;;;23.45;9.43;;;;;;;;;;5061252;28;20521;-74
2022/05/21 03:07:30;;;;;;;21.35;9.93;;;;;;;;;;5060662;28;20059;-74
2022/05/21 03:12:41;;;;;;;20.27;9.77;;;;;;;;;;5042620;28;20060;-75
2022/05/21 03:15:08;;;;;;;24.92;9.45;;;;;;;;;;5044249;28;20062;-75
2022/05/21 03:17:34;;;;;;;23.50;10.65;;;;;;;;;;5061628;28;20092;-74
2022/05/21 03:20:01;;;;;;;24.35;10.70;;;;;;;;;;5063593;28;20063;-77
2022/05/21 03:22:27;;;;;;;31.67;10.40;;;;;;;;;;5077604;28;20148;-75
2022/05/21 03:24:54;;;;;;;22.27;9.45;;;;;;;;;;5062931;28;20055;-75
2022/05/21 03:27:20;;;;;;;20.27;9.68;;;;;;;;;;5060234;28;20145;-74
2022/05/21 03:29:47;;;;;;;23.58;9.60;;;;;;;;;;5060573;28;20079;-75
2022/05/21 03:32:13;;;;;;;27.27;9.70;;;;;;;;;;5061817;28;20053;-75
2022/05/21 03:34:40;;;;;;;25.67;9.02;;;;;;;;;;5062749;28;20053;-75
2022/05/21 03:37:07;;;;;;;19.83;8.70;;;;;;;;;;5060837;28;20063;-74
2022/05/21 03:39:33;;;;;;;20.40;8.07;;;;;;;;;;5063425;28;20523;-75
2022/05/21 03:41:59;;;;;;;22.20;9.02;;;;;;;;;;5060247;28;20099;-74
2022/05/21 03:44:27;;;;;;;19.70;8.77;;;;;;;;;;5062121;28;20534;-75
2022/05/21 03:46:53;;;;;;;22.50;7.70;;;;;;;;;;5061311;28;20124;-74
2022/05/21 03:49:20;;;;;;;21.00;7.88;;;;;;;;;;5062029;28;20065;-75
2022/05/21 03:51:46;;;;;;;20.35;7.25;;;;;;;;;;5062135;28;20052;-74
2022/05/21 03:54:12;;;;;;;23.70;7.70;;;;;;;;;;5060308;28;20140;-75
2022/05/21 03:56:39;;;;;;;22.45;7.93;;;;;;;;;;5060953;28;20100;-75
2022/05/21 03:59:05;;;;;;;26.15;7.20;;;;;;;;;;5061620;28;21094;-73
2022/05/21 04:01:31;;;;;;;21.38;6.65;;;;;;;;;;5055957;28;21344;-74
2022/05/21 04:03:58;;;;;;;21.50;7.03;;;;;;;;;;5044432;28;20060;-75
2022/05/21 04:06:24;;;;;;;28.52;7.40;;;;;;;;;;5061037;28;20084;-74
2022/05/21 04:08:52;;;;;;;20.15;5.90;;;;;;;;;;5061304;28;20083;-73
2022/05/21 04:11:18;;;;;;;22.98;5.57;;;;;;;;;;5063946;28;20517;-74
2022/05/21 04:13:44;;;;;;;22.63;5.63;;;;;;;;;;5063103;28;20061;-74
2022/05/21 04:16:11;;;;;;;16.02;4.88;;;;;;;;;;5063984;28;20057;-75
2022/05/21 04:18:37;;;;;;;15.50;4.55;;;;;;;;;;5066549;28;20099;-75
2022/05/21 04:21:04;;;;;;;20.38;4.07;;;;;;;;;;5064951;28;20584;-75
2022/05/21 04:23:30;;;;;;;23.27;4.10;;;;;;;;;;5064186;28;20981;-75
2022/05/21 04:25:56;;;;;;;19.52;3.85;;;;;;;;;;5064563;28;20140;-75
2022/05/21 04:28:23;;;;;;;18.67;3.85;;;;;;;;;;5065024;28;20059;-76
2022/05/21 04:30:49;;;;;;;17.50;4.57;;;;;;;;;;5064576;28;20160;-74
2022/05/21 04:33:17;;;;;;;20.70;3.35;;;;;;;;;;5064730;28;20053;-76
2022/05/21 04:38:31;;;;;;;18.70;3.65;;;;;;;;;;5064184;28;20049;-76
2022/05/21 04:40:57;;;;;;;15.63;3.78;;;;;;;;;;5065577;28;20060;-73
2022/05/21 04:43:24;;;;;;;17.83;3.08;;;;;;;;;;5064160;28;20063;-75
2022/05/21 04:45:50;;;;;;;16.25;3.90;;;;;;;;;;5046464;28;20128;-74
2022/05/21 04:48:16;;;;;;;14.90;3.20;;;;;;;;;;5064660;28;20585;-74
2022/05/21 04:50:43;;;;;;;14.57;3.30;;;;;;;;;;5063979;28;20140;-75
2022/05/21 04:53:09;;;;;;;15.35;3.00;;;;;;;;;;5062722;28;20092;-74
2022/05/21 04:55:35;;;;;;;16.15;3.90;;;;;;;;;;5062534;28;20060;-74
2022/05/21 04:58:02;;;;;;;20.00;3.42;;;;;;;;;;5063918;28;20044;-75
2022/05/21 05:00:29;;;;;;;16.38;3.22;;;;;;;;;;5065165;28;20052;-75
2022/05/21 05:02:55;;;;;;;13.57;2.70;;;;;;;;;;5060835;28;20083;-75
2022/05/21 05:05:23;;;;;;;22.70;3.45;;;;;;;;;;5062202;28;20081;-76
2022/05/21 05:07:49;;;;;;;21.63;3.38;;;;;;;;;;5060700;28;20580;-75
2022/05/21 05:10:16;;;;;;;22.50;3.00;;;;;;;;;;5055677;28;20060;-75
2022/05/21 05:12:42;;;;;;;17.60;2.83;;;;;;;;;;5061768;28;20093;-75
2022/05/21 05:15:09;;;;;;;15.80;2.90;;;;;;;;;;5051330;28;20041;-75
2022/05/21 05:17:35;;;;;;;18.27;2.85;;;;;;;;;;5049171;28;20055;-75
2022/05/21 05:20:02;;;;;;;13.75;2.63;;;;;;;;;;5066351;28;20067;-75
2022/05/21 05:22:28;;;;;;;15.30;2.47;;;;;;;;;;5063727;28;20057;-75
2022/05/21 05:25:04;;;;;;;16.08;2.70;;;;;;;;;;5061806;28;20437;-76
2022/05/21 05:27:30;;;;;;;21.10;3.28;;;;;;;;;;5062015;28;20699;-74
2022/05/21 05:29:56;;;;;;;15.73;2.80;;;;;;;;;;5064240;28;20053;-75
2022/05/21 05:32:23;;;;;;;17.30;3.35;;;;;;;;;;5064375;28;20135;-76
2022/05/21 05:34:49;;;;;;;14.23;2.58;;;;;;;;;;5063336;28;20836;-75
2022/05/21 05:37:15;;;;;;;19.63;2.85;;;;;;;;;;5063212;28;20085;-76
2022/05/21 05:39:41;;;;;;;13.90;3.30;;;;;;;;;;5053099;28;20057;-75
2022/05/21 05:42:08;;;;;;;16.85;3.30;;;;;;;;;;5058616;28;20501;-76
2022/05/21 05:44:34;;;;;;;12.10;2.47;;;;;;;;;;5059771;28;20053;-75
2022/05/21 05:47:00;;;;;;;11.57;2.50;;;;;;;;;;5057640;28;20053;-74
2022/05/21 05:49:27;;;;;;;11.88;2.65;;;;;;;;;;5060008;28;20061;-74
2022/05/21 05:51:53;;;;;;;16.80;3.10;;;;;;;;;;5063270;28;20520;-75
2022/05/21 05:54:19;;;;;;;13.57;2.58;;;;;;;;;;5054746;28;20175;-75
2022/05/21 05:56:46;;;;;;;10.50;2.35;;;;;;;;;;5053440;28;20053;-75
2022/05/21 06:04:42;;;;;;;17.40;2.65;;;;;;;;;;5053268;28;20049;-76
2022/05/21 06:07:15;;;;;;;14.57;2.50;;;;;;;;;;5063592;28;20140;-76
2022/05/21 06:09:41;;;;;;;15.93;2.65;;;;;;;;;;5067365;28;20063;-76
2022/05/21 06:12:08;;;;;;;12.57;2.22;;;;;;;;;;5067890;28;20045;-75
2022/05/21 06:14:35;;;;;;;13.27;2.53;;;;;;;;;;5057988;28;20076;-75
2022/05/21 06:17:02;;;;;;;12.05;2.30;;;;;;;;;;5056523;28;20060;-75
2022/05/21 06:19:28;;;;;;;13.75;2.67;;;;;;;;;;5063421;28;20060;-75
2022/05/21 06:22:01;;;;;;;14.30;2.30;;;;;;;;;;5052217;28;20533;-73
2022/05/21 06:24:28;;;;;;;15.60;3.00;;;;;;;;;;5058840;28;20140;-75
2022/05/21 06:26:54;;;;;;;12.32;2.50;;;;;;;;;;5063734;28;20065;-76
2022/05/21 06:29:21;;;;;;;12.80;2.22;;;;;;;;;;5057675;28;20071;-75
2022/05/21 06:31:47;;;;;;;16.40;2.83;;;;;;;;;;5053801;28;20136;-75
2022/05/21 06:34:14;;;;;;;14.23;2.60;;;;;;;;;;5063755;28;20152;-75
2022/05/21 06:36:40;;;;;;;12.77;2.70;;;;;;;;;;5057544;28;20072;-76
2022/05/21 06:39:07;;;;;;;14.60;2.90;;;;;;;;;;5062080;28;20088;-76
2022/05/21 06:41:33;;;;;;;13.00;2.63;;;;;;;;;;5058752;28;20057;-75
2022/05/21 06:43:59;;;;;;;14.80;2.25;;;;;;;;;;5059870;28;20392;-75
2022/05/21 06:46:25;;;;;;;17.60;2.10;;;;;;;;;;5059798;28;20520;-75
2022/05/21 06:48:52;;;;;;;10.18;2.17;;;;;;;;;;5043013;28;20490;-76
2022/05/21 06:51:18;;;;;;;13.93;2.20;;;;;;;;;;5055405;28;20053;-75
2022/05/21 06:53:45;;;;;;;11.55;2.58;;;;;;;;;;5051589;28;20111;-76
2022/05/21 06:56:12;;;;;;;13.70;2.35;;;;;;;;;;5058518;28;20056;-75
2022/05/21 06:58:39;;;;;;;12.85;2.88;;;;;;;;;;5055123;28;20148;-75
2022/05/21 07:01:06;;;;;;;13.07;2.35;;;;;;;;;;5063304;28;20056;-75
2022/05/21 07:03:33;;;;;;;15.15;2.55;;;;;;;;;;5070856;28;20053;-76
2022/05/21 07:08:44;;;;;;;8.80;1.95;;;;;;;;;;5057573;28;20057;-75
2022/05/21 07:11:11;;;;;;;16.50;2.15;;;;;;;;;;5051437;28;20080;-75
2022/05/21 07:13:37;;;;;;;10.23;2.40;;;;;;;;;;5057844;28;20903;-75
2022/05/21 07:16:04;;;;;;;15.05;2.92;;;;;;;;;;5066159;28;20063;-76
2022/05/21 07:18:30;;;;;;;15.82;3.20;;;;;;;;;;5057642;28;20049;-75
2022/05/21 07:20:56;;;;;;;15.45;3.08;;;;;;;;;;5054660;28;20063;-75
2022/05/21 07:23:24;;;;;;;8.30;2.33;;;;;;;;;;5060615;28;20054;-75
2022/05/21 07:25:50;;;;;;;13.27;2.58;;;;;;;;;;5057084;28;20049;-75
2022/05/21 07:28:17;;;;;;;12.50;2.20;;;;;;;;;;5053524;28;20559;-75
2022/05/21 07:30:44;;;;;;;12.90;2.33;;;;;;;;;;5060570;28;20137;-75
2022/05/21 07:33:12;;;;;;;11.77;1.92;;;;;;;;;;5052298;28;20392;-75
2022/05/21 07:35:38;;;;;;;11.38;1.80;;;;;;;;;;5050206;28;20049;-75
2022/05/21 07:38:05;;;;;;;9.40;1.83;;;;;;;;;;5053630;28;20076;-75
2022/05/21 07:40:31;;;;;;;10.20;1.83;;;;;;;;;;5059929;28;20053;-75
2022/05/21 07:43:12;;;;;;;10.15;2.30;;;;;;;;;;5052677;28;20049;-75
2022/05/21 07:45:41;;;;;;;9.05;1.90;;;;;;;;;;5050385;28;21082;-76
2022/05/21 07:48:10;;;;;;;10.68;2.10;;;;;;;;;;5067350;28;20556;-75
2022/05/21 07:50:40;;;;;;;11.07;2.10;;;;;;;;;;5062085;28;20128;-76
2022/05/21 07:53:10;;;;;;;13.10;1.80;;;;;;;;;;5062221;28;20049;-76
2022/05/21 07:55:37;;;;;;;10.40;2.22;;;;;;;;;;5055602;28;20701;-76
2022/05/21 07:58:03;;;;;;;10.15;2.30;;;;;;;;;;5055486;28;20513;-76
2022/05/21 08:00:30;;;;;;;10.80;2.28;;;;;;;;;;5061949;28;20080;-75
2022/05/21 08:02:56;;;;;;;7.70;2.00;;;;;;;;;;5063686;28;20528;-76
2022/05/21 08:05:23;;;;;;;10.13;1.80;;;;;;;;;;5077568;28;20057;-76
2022/05/21 08:07:51;;;;;;;12.85;2.50;;;;;;;;;;5063708;28;20191;-76
2022/05/21 08:12:53;;;;;;;10.02;2.45;;;;;;;;;;5270937;22;1049941;-75
2022/05/21 08:15:20;;;;;;;12.85;2.33;;;;;;;;;;5069970;28;20114;-77
2022/05/21 08:17:46;;;;;;;9.93;1.98;;;;;;;;;;5065563;28;20051;-77
2022/05/21 08:20:13;;;;;;;12.32;2.05;;;;;;;;;;5083048;28;20401;-77
2022/05/21 08:28:12;;;;;;;11.07;2.20;;;;;;;;;;5084925;28;20487;-77
2022/05/21 08:30:43;;;;;;;11.25;2.50;;;;;;;;;;5086597;28;20084;-77
2022/05/21 08:33:09;;;;;;;10.65;2.28;;;;;;;;;;5086310;28;20066;-77
2022/05/21 08:35:38;;;;;;;9.50;2.00;;;;;;;;;;5064248;28;20059;-77
2022/05/21 08:38:05;;;;;;;11.52;1.90;;;;;;;;;;5067955;28;20048;-77
2022/05/21 08:40:37;;;;;;;6.97;1.98;;;;;;;;;;5080823;28;20059;-77
2022/05/21 08:43:05;;;;;;;10.52;2.10;;;;;;;;;;5085051;28;20057;-77
2022/05/21 08:45:43;;;;;;;13.75;2.55;;;;;;;;;;5068234;28;20048;-75
2022/05/21 08:48:11;;;;;;;12.80;2.10;;;;;;;;;;5084768;28;20056;-77
2022/05/21 08:50:41;;;;;;;9.50;2.30;;;;;;;;;;5084092;28;20532;-77
2022/05/21 08:53:18;;;;;;;13.63;2.13;;;;;;;;;;5069466;28;20056;-75
2022/05/21 08:55:47;;;;;;;12.30;2.08;;;;;;;;;;5088168;28;20052;-75
2022/05/21 08:58:20;;;;;;;8.60;2.05;;;;;;;;;;5087838;28;20044;-75
2022/05/21 09:00:48;;;;;;;12.15;2.38;;;;;;;;;;5066823;28;20492;-75
2022/05/21 09:03:17;;;;;;;8.82;2.05;;;;;;;;;;5067064;28;20461;-76
2022/05/21 09:05:49;;;;;;;10.75;2.20;;;;;;;;;;5067061;28;20060;-76
2022/05/21 09:08:27;;;;;;;12.45;2.72;;;;;;;;;;5077510;28;20052;-75
2022/05/21 09:10:56;;;;;;;12.23;1.95;;;;;;;;;;5077897;28;20132;-76
2022/05/21 09:13:25;;;;;;;10.00;2.22;;;;;;;;;;5065779;28;20148;-76
2022/05/21 09:18:37;;;;;;;11.55;2.58;;;;;;;;;;5081483;28;20588;-76
2022/05/21 09:21:09;;;;;;;9.43;2.55;;;;;;;;;;5067382;28;20233;-76
2022/05/21 09:23:45;;;;;;;9.00;2.20;;;;;;;;;;5078634;28;20144;-76
2022/05/21 09:26:12;;;;;;;8.70;2.08;;;;;;;;;;5077590;28;20057;-76
2022/05/21 09:28:39;;;;;;;9.23;2.20;;;;;;;;;;5081328;28;20059;-76
2022/05/21 09:31:06;;;;;;;9.02;1.80;;;;;;;;;;5083600;28;20520;-76
2022/05/21 09:33:40;;;;;;;14.10;2.30;;;;;;;;;;5065119;28;20144;-76
2022/05/21 09:36:07;;;;;;;9.40;2.45;;;;;;;;;;5071680;28;20563;-76
2022/05/21 09:38:36;;;;;;;9.98;2.10;;;;;;;;;;5046825;28;20049;-76
2022/05/21 09:41:05;;;;;;;15.00;2.85;;;;;;;;;;5065600;28;20060;-76
2022/05/21 09:46:28;;;;;;;9.27;2.00;;;;;;;;;;5067941;28;20060;-76
2022/05/21 09:49:10;;;;;;;8.98;1.90;;;;;;;;;;5085166;28;21008;-76
2022/05/21 09:51:36;;;;;;;12.38;2.28;;;;;;;;;;5067694;28;20052;-75
2022/05/21 09:54:16;;;;;;;11.52;2.15;;;;;;;;;;5066892;28;20075;-76
2022/05/21 09:56:54;;;;;;;9.25;2.05;;;;;;;;;;5078809;28;20227;-76
2022/05/21 09:59:22;;;;;;;7.70;1.90;;;;;;;;;;5082974;28;20127;-76
2022/05/21 10:01:50;;;;;;;10.23;1.98;;;;;;;;;;5064802;28;20053;-75
2022/05/21 10:04:16;;;;;;;8.68;2.50;;;;;;;;;;5064250;28;20500;-76
2022/05/21 10:06:46;;;;;;;13.43;2.35;;;;;;;;;;5070877;28;20106;-75
2022/05/21 10:12:04;;;;;;;9.57;1.92;;;;;;;;;;5065772;28;20055;-77
2022/05/21 10:14:42;;;;;;;8.65;2.00;;;;;;;;;;5066955;28;20132;-76
2022/05/21 10:17:12;;;;;;;9.00;1.85;;;;;;;;;;5066593;28;20050;-76
2022/05/21 10:19:44;;;;;;;8.73;2.15;;;;;;;;;;5061848;28;20140;-76
2022/05/21 10:22:28;;;;;;;9.13;2.03;;;;;;;;;;5045903;28;20091;-77
2022/05/21 10:25:01;;;;;;;11.45;2.35;;;;;;;;;;5063185;28;20052;-76
2022/05/21 10:27:34;;;;;;;9.07;2.25;;;;;;;;;;5063987;28;20057;-75
2022/05/21 10:30:06;;;;;;;8.77;2.13;;;;;;;;;;5064056;28;20121;-75
2022/05/21 10:32:32;;;;;;;11.32;2.20;;;;;;;;;;5071431;28;20147;-75
2022/05/21 10:34:58;;;;;;;8.05;1.92;;;;;;;;;;5083971;28;20059;-75
2022/05/21 10:37:24;;;;;;;13.52;2.22;;;;;;;;;;5066316;28;20076;-75
2022/05/21 10:39:56;;;;;;;8.77;1.85;;;;;;;;;;5080907;28;20598;-76
2022/05/21 10:42:42;;;;;;;7.28;1.63;;;;;;;;;;5068067;28;20586;-76
2022/05/21 10:45:16;;;;;;;10.10;2.08;;;;;;;;;;5063617;28;20907;-75
2022/05/21 10:47:55;;;;;;;10.85;2.08;;;;;;;;;;5063381;28;20053;-75
2022/05/21 10:50:33;;;;;;;10.45;2.22;;;;;;;;;;5070999;28;20052;-75
2022/05/21 10:53:10;;;;;;;9.90;1.80;;;;;;;;;;5061523;28;20060;-76
2022/05/21 10:55:46;;;;;;;12.77;2.00;;;;;;;;;;5046085;28;20433;-76
2022/05/21 10:58:25;;;;;;;10.30;2.05;;;;;;;;;;5062700;28;20143;-75
2022/05/21 11:01:04;;;;;;;10.27;1.90;;;;;;;;;;5073566;28;20056;-75
2022/05/21 11:03:39;;;;;;;10.10;1.80;;;;;;;;;;5081316;28;20058;-76
2022/05/21 11:06:18;;;;;;;10.18;1.90;;;;;;;;;;5083954;28;20144;-75
2022/05/21 11:09:03;;;;;;;9.20;2.05;;;;;;;;;;5052937;28;20172;-76
2022/05/21 11:11:38;;;;;;;5.68;1.60;;;;;;;;;;5064828;28;20110;-76
2022/05/21 11:14:11;;;;;;;9.10;1.80;;;;;;;;;;5063035;28;20053;-76
2022/05/21 11:16:41;;;;;;;8.02;1.98;;;;;;;;;;5062971;28;20045;-76
2022/05/21 11:19:14;;;;;;;9.02;2.03;;;;;;;;;;5063274;28;20049;-76
2022/05/21 11:21:43;;;;;;;9.07;2.03;;;;;;;;;;5046616;28;20188;-75
2022/05/21 11:24:15;;;;;;;7.85;1.65;;;;;;;;;;5079009;28;20063;-76
2022/05/21 11:26:54;;;;;;;9.30;2.03;;;;;;;;;;5083127;28;20052;-76
2022/05/21 11:29:40;;;;;;;7.05;1.73;;;;;;;;;;5080970;28;20154;-76
2022/05/21 11:37:42;;;;;;;9.32;1.83;;;;;;;;;;5063442;28;20139;-76
2022/05/21 11:40:29;;;;;;;9.32;2.13;;;;;;;;;;5065195;28;20052;-77
2022/05/21 11:42:55;;;;;;;9.13;1.65;;;;;;;;;;5062282;28;20060;-76
2022/05/21 11:45:23;;;;;;;11.80;2.20;;;;;;;;;;5062775;28;20045;-76
2022/05/21 11:47:52;;;;;;;8.15;1.83;;;;;;;;;;5075314;28;20052;-77
2022/05/21 11:50:29;;;;;;;10.68;1.85;;;;;;;;;;5065329;28;20056;-75
2022/05/21 11:52:55;;;;;;;9.32;1.80;;;;;;;;;;5081883;28;20080;-76
2022/05/21 11:55:21;;;;;;;10.68;2.03;;;;;;;;;;5065397;28;20056;-76
2022/05/21 11:57:48;;;;;;;6.65;1.77;;;;;;;;;;5078627;28;20049;-76
2022/05/21 12:00:14;;;;;;;10.05;2.03;;;;;;;;;;5083433;28;20139;-76
2022/05/21 12:02:59;;;;;;;8.35;2.08;;;;;;;;;;5081888;28;20780;-76
2022/05/21 12:05:31;;;;;;;7.45;1.73;;;;;;;;;;5049558;28;20077;-76
2022/05/21 12:08:09;;;;;;;9.38;1.85;;;;;;;;;;5062662;28;20519;-76
2022/05/21 12:10:52;;;;;;;7.70;1.63;;;;;;;;;;5063771;28;20056;-76
2022/05/21 12:13:21;;;;;;;7.65;1.63;;;;;;;;;;5066345;28;20139;-77
2022/05/21 12:15:50;;;;;;;11.65;1.80;;;;;;;;;;5083063;28;20585;-76
2022/05/21 12:18:35;;;;;;;7.95;1.80;;;;;;;;;;5083216;28;20053;-76
2022/05/21 12:21:02;;;;;;;10.07;2.10;;;;;;;;;;5063527;28;20053;-76
2022/05/21 12:23:35;;;;;;;8.65;1.50;;;;;;;;;;5048482;28;20056;-76
2022/05/21 12:26:21;;;;;;;10.13;2.35;;;;;;;;;;5076878;28;20048;-77
2022/05/21 12:28:47;;;;;;;8.27;1.70;;;;;;;;;;5073947;28;20076;-77
2022/05/21 12:31:19;;;;;;;9.02;1.90;;;;;;;;;;5054838;28;20063;-76
2022/05/21 12:34:04;;;;;;;13.30;2.00;;;;;;;;;;5075432;28;20503;-76
2022/05/21 12:36:30;;;;;;;12.35;2.28;;;;;;;;;;5078259;28;20056;-77
2022/05/21 12:39:00;;;;;;;10.70;2.30;;;;;;;;;;5057948;28;20616;-77
2022/05/21 12:41:32;;;;;;;10.87;2.50;;;;;;;;;;5063548;28;20452;-78
2022/05/21 12:43:59;;;;;;;11.82;2.95;;;;;;;;;;5052889;28;20084;-77
2022/05/21 12:46:31;;;;;;;15.98;2.45;;;;;;;;;;5065759;28;20061;-79
2022/05/21 12:49:07;;;;;;;7.78;2.25;;;;;;;;;;5079308;28;20060;-78
2022/05/21 12:51:34;;;;;;;11.35;3.13;;;;;;;;;;5070044;28;20135;-78
2022/05/21 12:54:07;;;;;;;9.25;2.22;;;;;;;;;;5059934;28;20733;-78
2022/05/21 12:56:34;;;;;;;10.15;2.53;;;;;;;;;;5059582;28;20570;-77
2022/05/21 12:59:15;;;;;;;10.65;2.25;;;;;;;;;;5063691;28;20612;-77
2022/05/21 13:01:55;;;;;;;9.45;2.55;;;;;;;;;;5068102;28;20088;-78
2022/05/21 13:04:22;;;;;;;10.33;2.70;;;;;;;;;;5056729;28;20110;-77
2022/05/21 13:06:51;;;;;;;7.40;2.30;;;;;;;;;;5073429;28;20059;-77
2022/05/21 13:09:18;;;;;;;8.25;2.40;;;;;;;;;;5078636;28;20052;-77
2022/05/21 13:11:44;;;;;;;8.10;2.65;;;;;;;;;;5066681;28;20064;-77
2022/05/21 13:14:15;;;;;;;12.85;2.88;;;;;;;;;;5052880;28;20806;-77
2022/05/21 13:16:48;;;;;;;6.65;1.95;;;;;;;;;;5073682;28;20361;-77
2022/05/21 13:19:22;;;;;;;8.68;2.05;;;;;;;;;;5046902;28;20052;-78
2022/05/21 13:21:49;;;;;;;7.40;2.03;;;;;;;;;;5077259;28;20137;-78
2022/05/21 13:24:18;;;;;;;7.85;2.00;;;;;;;;;;5062064;28;20052;-78
2022/05/21 13:27:00;;;;;;;8.23;1.93;;;;;;;;;;5065444;28;20504;-78
2022/05/21 13:29:27;;;;;;;7.95;2.08;;;;;;;;;;5053913;28;20143;-78
2022/05/21 13:31:54;;;;;;;7.57;1.67;;;;;;;;;;5061851;28;20110;-78
2022/05/21 13:34:23;;;;;;;9.13;1.70;;;;;;;;;;5072530;28;20718;-78
2022/05/21 13:36:53;;;;;;;9.75;1.90;;;;;;;;;;5061496;28;20369;-78
2022/05/21 13:39:21;;;;;;;6.50;1.48;;;;;;;;;;5074192;28;20086;-77
2022/05/21 13:41:49;;;;;;;6.32;1.60;;;;;;;;;;5067523;28;20059;-77
2022/05/21 13:44:19;;;;;;;10.13;2.00;;;;;;;;;;5068401;28;20053;-77
2022/05/21 13:46:49;;;;;;;5.95;1.52;;;;;;;;;;5073858;28;20584;-78
2022/05/21 13:49:20;;;;;;;9.52;1.85;;;;;;;;;;5075673;28;20084;-79
2022/05/21 13:51:48;;;;;;;7.68;1.70;;;;;;;;;;5043567;28;20544;-79
2022/05/21 13:54:14;;;;;;;8.75;1.80;;;;;;;;;;5056952;28;20087;-79
2022/05/21 13:56:42;;;;;;;10.52;2.00;;;;;;;;;;5062949;28;20064;-79
2022/05/21 13:59:09;;;;;;;9.10;2.30;;;;;;;;;;5063381;28;20143;-78
2022/05/21 14:01:36;;;;;;;10.45;2.33;;;;;;;;;;5065346;28;20085;-78
2022/05/21 14:04:07;;;;;;;11.23;1.67;;;;;;;;;;5068763;28;20055;-77
2022/05/21 14:06:39;;;;;;;9.45;2.00;;;;;;;;;;5083841;28;20081;-78
2022/05/21 14:09:06;;;;;;;8.82;2.22;;;;;;;;;;5085201;28;20135;-78
2022/05/21 14:11:34;;;;;;;8.98;1.77;;;;;;;;;;5071104;28;20152;-78
2022/05/21 14:14:08;;;;;;;6.97;1.77;;;;;;;;;;5065673;28;20443;-78
2022/05/21 14:16:38;;;;;;;9.95;1.90;;;;;;;;;;5074555;28;20501;-78
2022/05/21 14:19:09;;;;;;;8.57;1.83;;;;;;;;;;5066216;28;20059;-77
2022/05/21 14:21:37;;;;;;;8.00;1.95;;;;;;;;;;5072355;28;20075;-78
2022/05/21 14:24:17;;;;;;;6.85;1.70;;;;;;;;;;5086534;28;20084;-78
2022/05/21 14:27:01;;;;;;;8.93;1.75;;;;;;;;;;5091197;28;20416;-78
2022/05/21 14:29:59;;;;;;;6.88;1.70;;;;;;;;;;5098719;28;20052;-78
2022/05/21 14:32:56;;;;;;;10.20;2.08;;;;;;;;;;5093888;28;20110;-78
2022/05/21 14:35:34;;;;;;;9.10;2.03;;;;;;;;;;5048794;28;20516;-78
2022/05/21 14:38:04;;;;;;;6.30;1.58;;;;;;;;;;5070409;28;20137;-78
2022/05/21 14:41:10;;;;;;;8.85;1.85;;;;;;;;;;5074791;28;20056;-77
2022/05/21 14:44:33;;;;;;;7.95;1.60;;;;;;;;;;5062519;28;20115;-79
2022/05/21 14:53:04;;;;;;;7.07;2.10;;;;;;;;;;5025909;28;20509;-78
2022/05/21 14:59:49;;;;;;;8.40;1.60;;;;;;;;;;5075342;28;20041;-79
2022/05/21 15:02:23;;;;;;;9.52;1.98;;;;;;;;;;5092753;28;20048;-78
2022/05/21 15:04:54;;;;;;;7.10;1.85;;;;;;;;;;5069847;28;20559;-78
2022/05/21 15:10:46;;;;;;;7.72;1.95;;;;;;;;;;5091165;28;20052;-79
2022/05/21 15:14:04;;;;;;;7.03;1.58;;;;;;;;;;5088475;28;20052;-79
2022/05/21 15:17:03;;;;;;;8.23;2.10;;;;;;;;;;5077975;28;20060;-78
2022/05/21 15:19:33;;;;;;;6.40;1.80;;;;;;;;;;5082878;28;20057;-78
2022/05/21 15:22:08;;;;;;;7.43;1.70;;;;;;;;;;5060322;28;20161;-78
2022/05/21 15:24:42;;;;;;;6.18;1.67;;;;;;;;;;5089148;28;20052;-79
2022/05/21 15:27:30;;;;;;;8.35;2.10;;;;;;;;;;5062775;28;20555;-79
2022/05/21 15:29:57;;;;;;;9.15;2.05;;;;;;;;;;5062986;28;20896;-78
2022/05/21 15:32:24;;;;;;;9.85;2.22;;;;;;;;;;5077620;28;20048;-77
2022/05/21 15:34:53;;;;;;;11.55;2.67;;;;;;;;;;5059466;28;20048;-78
2022/05/21 15:37:21;;;;;;;8.30;2.03;;;;;;;;;;5064612;28;20041;-77
2022/05/21 15:39:49;;;;;;;12.70;3.13;;;;;;;;;;5049582;28;20526;-77
2022/05/21 15:42:16;;;;;;;10.75;2.42;;;;;;;;;;5063275;28;20061;-76
2022/05/21 15:44:44;;;;;;;11.45;2.72;;;;;;;;;;5072116;28;20060;-77